sensor_id;sensor_type;location;lat;lon;timestamp;pressure;altitude;pressure_sealevel;temperature
11321;BMP180;5715;48.234;14.320;2022-10-16T00:02:39;98614.00;;;19.70
11321;BMP180;5715;48.234;14.320;2022-10-16T00:05:28;98615.00;;;19.70
11321;BMP180;5715;48.234;14.320;2022-10-16T00:08:15;98622.00;;;19.80
11321;BMP180;5715;48.234;14.320;2022-10-16T00:11:13;98628.00;;;19.80
11321;BMP180;5715;48.234;14.320;2022-10-16T00:14:03;98636.00;;;19.90
11321;BMP180;5715;48.234;14.320;2022-10-16T00:16:51;98631.00;;;19.70
11321;BMP180;5715;48.234;14.320;2022-10-16T00:19:39;98638.00;;;19.50
11321;BMP180;5715;48.234;14.320;2022-10-16T00:22:26;98630.00;;;19.80
11321;BMP180;5715;48.234;14.320;2022-10-16T00:25:14;98635.00;;;19.80
11321;BMP180;5715;48.234;14.320;2022-10-16T00:28:02;98633.00;;;19.80
11321;BMP180;5715;48.234;14.320;2022-10-16T00:30:50;98639.00;;;19.90
11321;BMP180;5715;48.234;14.320;2022-10-16T00:33:39;98639.00;;;20.00
11321;BMP180;5715;48.234;14.320;2022-10-16T00:36:27;98640.00;;;19.90
11321;BMP180;5715;48.234;14.320;2022-10-16T00:39:15;98631.00;;;19.90
11321;BMP180;5715;48.234;14.320;2022-10-16T00:42:03;98626.00;;;19.90
11321;BMP180;5715;48.234;14.320;2022-10-16T00:44:57;98635.00;;;19.80
11321;BMP180;5715;48.234;14.320;2022-10-16T00:47:47;98638.00;;;20.00
11321;BMP180;5715;48.234;14.320;2022-10-16T00:50:36;98641.00;;;19.80
11321;BMP180;5715;48.234;14.320;2022-10-16T00:53:25;98643.00;;;19.60
11321;BMP180;5715;48.234;14.320;2022-10-16T00:56:13;98646.00;;;19.70
11321;BMP180;5715;48.234;14.320;2022-10-16T00:59:07;98640.00;;;19.70
11321;BMP180;5715;48.234;14.320;2022-10-16T01:02:00;98643.00;;;19.70
11321;BMP180;5715;48.234;14.320;2022-10-16T01:04:51;98644.00;;;19.70
11321;BMP180;5715;48.234;14.320;2022-10-16T01:07:58;98649.00;;;19.80
11321;BMP180;5715;48.234;14.320;2022-10-16T01:11:22;98642.00;;;19.80
11321;BMP180;5715;48.234;14.320;2022-10-16T01:14:58;98649.00;;;19.70
11321;BMP180;5715;48.234;14.320;2022-10-16T01:18:18;98641.00;;;19.50
11321;BMP180;5715;48.234;14.320;2022-10-16T01:21:32;98629.00;;;19.50
11321;BMP180;5715;48.234;14.320;2022-10-16T01:24:45;98639.00;;;19.50
11321;BMP180;5715;48.234;14.320;2022-10-16T01:27:41;98635.00;;;19.60
11321;BMP180;5715;48.234;14.320;2022-10-16T01:30:35;98641.00;;;19.60
11321;BMP180;5715;48.234;14.320;2022-10-16T01:33:42;98644.00;;;19.60
11321;BMP180;5715;48.234;14.320;2022-10-16T01:37:02;98656.00;;;19.60
11321;BMP180;5715;48.234;14.320;2022-10-16T01:39:58;98666.00;;;19.30
11321;BMP180;5715;48.234;14.320;2022-10-16T01:42:56;98671.00;;;19.30
11321;BMP180;5715;48.234;14.320;2022-10-16T01:45:47;98667.00;;;19.40
11321;BMP180;5715;48.234;14.320;2022-10-16T01:48:36;98665.00;;;19.40
11321;BMP180;5715;48.234;14.320;2022-10-16T01:51:25;98668.00;;;19.50
11321;BMP180;5715;48.234;14.320;2022-10-16T01:54:16;98662.00;;;19.50
11321;BMP180;5715;48.234;14.320;2022-10-16T01:57:08;98662.00;;;19.50
11321;BMP180;5715;48.234;14.320;2022-10-16T02:00:07;98663.00;;;19.60
11321;BMP180;5715;48.234;14.320;2022-10-16T02:02:57;98667.00;;;19.70
11321;BMP180;5715;48.234;14.320;2022-10-16T02:05:56;98671.00;;;19.80
11321;BMP180;5715;48.234;14.320;2022-10-16T02:08:46;98684.00;;;19.90
11321;BMP180;5715;48.234;14.320;2022-10-16T02:11:33;98662.00;;;19.80
11321;BMP180;5715;48.234;14.320;2022-10-16T02:14:21;98662.00;;;19.90
11321;BMP180;5715;48.234;14.320;2022-10-16T02:17:15;98660.00;;;20.00
11321;BMP180;5715;48.234;14.320;2022-10-16T02:20:04;98664.00;;;20.00
11321;BMP180;5715;48.234;14.320;2022-10-16T02:22:54;98665.00;;;20.00
11321;BMP180;5715;48.234;14.320;2022-10-16T02:25:47;98671.00;;;20.00
11321;BMP180;5715;48.234;14.320;2022-10-16T02:28:45;98674.00;;;20.00
11321;BMP180;5715;48.234;14.320;2022-10-16T02:31:39;98677.00;;;19.90
11321;BMP180;5715;48.234;14.320;2022-10-16T02:34:31;98687.00;;;20.00
11321;BMP180;5715;48.234;14.320;2022-10-16T02:37:20;98691.00;;;20.00
11321;BMP180;5715;48.234;14.320;2022-10-16T02:40:09;98688.00;;;20.20
11321;BMP180;5715;48.234;14.320;2022-10-16T02:42:57;98699.00;;;20.40
11321;BMP180;5715;48.234;14.320;2022-10-16T02:45:44;98696.00;;;20.40
11321;BMP180;5715;48.234;14.320;2022-10-16T02:48:32;98706.00;;;20.60
11321;BMP180;5715;48.234;14.320;2022-10-16T02:51:20;98698.00;;;20.60
11321;BMP180;5715;48.234;14.320;2022-10-16T02:54:07;98698.00;;;20.70
11321;BMP180;5715;48.234;14.320;2022-10-16T02:56:55;98704.00;;;20.70
11321;BMP180;5715;48.234;14.320;2022-10-16T02:59:43;98718.00;;;20.70
11321;BMP180;5715;48.234;14.320;2022-10-16T03:02:30;98710.00;;;20.70
11321;BMP180;5715;48.234;14.320;2022-10-16T03:05:18;98712.00;;;20.70
11321;BMP180;5715;48.234;14.320;2022-10-16T03:08:05;98718.00;;;20.70
11321;BMP180;5715;48.234;14.320;2022-10-16T03:10:53;98723.00;;;20.70
11321;BMP180;5715;48.234;14.320;2022-10-16T03:13:40;98728.00;;;20.60
11321;BMP180;5715;48.234;14.320;2022-10-16T03:16:28;98725.00;;;20.70
11321;BMP180;5715;48.234;14.320;2022-10-16T03:19:17;98726.00;;;20.70
11321;BMP180;5715;48.234;14.320;2022-10-16T03:22:05;98725.00;;;20.70
11321;BMP180;5715;48.234;14.320;2022-10-16T03:24:52;98732.00;;;20.70
11321;BMP180;5715;48.234;14.320;2022-10-16T03:27:40;98728.00;;;20.60
11321;BMP180;5715;48.234;14.320;2022-10-16T03:30:27;98739.00;;;20.60
11321;BMP180;5715;48.234;14.320;2022-10-16T03:33:15;98734.00;;;20.60
11321;BMP180;5715;48.234;14.320;2022-10-16T03:36:03;98731.00;;;20.80
11321;BMP180;5715;48.234;14.320;2022-10-16T03:38:50;98729.00;;;20.60
11321;BMP180;5715;48.234;14.320;2022-10-16T03:41:38;98729.00;;;20.50
11321;BMP180;5715;48.234;14.320;2022-10-16T03:44:25;98729.00;;;20.60
11321;BMP180;5715;48.234;14.320;2022-10-16T03:47:13;98730.00;;;20.60
11321;BMP180;5715;48.234;14.320;2022-10-16T03:50:00;98736.00;;;20.50
11321;BMP180;5715;48.234;14.320;2022-10-16T03:52:48;98736.00;;;20.40
11321;BMP180;5715;48.234;14.320;2022-10-16T03:55:36;98744.00;;;20.40
11321;BMP180;5715;48.234;14.320;2022-10-16T03:58:23;98737.00;;;20.40
11321;BMP180;5715;48.234;14.320;2022-10-16T04:01:11;98745.00;;;20.40
11321;BMP180;5715;48.234;14.320;2022-10-16T04:03:58;98745.00;;;20.30
11321;BMP180;5715;48.234;14.320;2022-10-16T04:06:46;98751.00;;;20.30
11321;BMP180;5715;48.234;14.320;2022-10-16T04:09:33;98752.00;;;20.30
11321;BMP180;5715;48.234;14.320;2022-10-16T04:12:21;98753.00;;;20.20
11321;BMP180;5715;48.234;14.320;2022-10-16T04:15:09;98760.00;;;20.30
11321;BMP180;5715;48.234;14.320;2022-10-16T04:17:57;98758.00;;;20.20
11321;BMP180;5715;48.234;14.320;2022-10-16T04:20:44;98764.00;;;20.00
11321;BMP180;5715;48.234;14.320;2022-10-16T04:23:32;98771.00;;;20.10
11321;BMP180;5715;48.234;14.320;2022-10-16T04:26:20;98768.00;;;20.10
11321;BMP180;5715;48.234;14.320;2022-10-16T04:29:07;98774.00;;;20.20
11321;BMP180;5715;48.234;14.320;2022-10-16T04:31:55;98764.00;;;20.20
11321;BMP180;5715;48.234;14.320;2022-10-16T04:34:43;98766.00;;;20.00
11321;BMP180;5715;48.234;14.320;2022-10-16T04:37:30;98772.00;;;20.30
11321;BMP180;5715;48.234;14.320;2022-10-16T04:40:18;98767.00;;;20.20
11321;BMP180;5715;48.234;14.320;2022-10-16T04:43:05;98756.00;;;20.30
11321;BMP180;5715;48.234;14.320;2022-10-16T04:45:53;98761.00;;;20.30
11321;BMP180;5715;48.234;14.320;2022-10-16T04:48:41;98775.00;;;20.30
11321;BMP180;5715;48.234;14.320;2022-10-16T04:51:30;98769.00;;;20.30
11321;BMP180;5715;48.234;14.320;2022-10-16T04:54:17;98767.00;;;20.30
11321;BMP180;5715;48.234;14.320;2022-10-16T04:57:05;98770.00;;;20.20
11321;BMP180;5715;48.234;14.320;2022-10-16T04:59:53;98762.00;;;19.80
11321;BMP180;5715;48.234;14.320;2022-10-16T05:02:40;98760.00;;;19.90
11321;BMP180;5715;48.234;14.320;2022-10-16T05:05:28;98765.00;;;20.10
11321;BMP180;5715;48.234;14.320;2022-10-16T05:08:16;98763.00;;;20.20
11321;BMP180;5715;48.234;14.320;2022-10-16T05:11:04;98767.00;;;20.20
11321;BMP180;5715;48.234;14.320;2022-10-16T05:13:51;98777.00;;;20.30
11321;BMP180;5715;48.234;14.320;2022-10-16T05:16:42;98776.00;;;20.30
11321;BMP180;5715;48.234;14.320;2022-10-16T05:19:29;98780.00;;;20.20
11321;BMP180;5715;48.234;14.320;2022-10-16T05:22:17;98787.00;;;19.90
11321;BMP180;5715;48.234;14.320;2022-10-16T05:25:05;98787.00;;;20.20
11321;BMP180;5715;48.234;14.320;2022-10-16T05:27:52;98800.00;;;20.30
11321;BMP180;5715;48.234;14.320;2022-10-16T05:30:40;98796.00;;;20.30
11321;BMP180;5715;48.234;14.320;2022-10-16T05:33:27;98805.00;;;20.30
11321;BMP180;5715;48.234;14.320;2022-10-16T05:36:15;98784.00;;;20.30
11321;BMP180;5715;48.234;14.320;2022-10-16T05:39:03;98794.00;;;20.30
11321;BMP180;5715;48.234;14.320;2022-10-16T05:41:50;98811.00;;;20.40
11321;BMP180;5715;48.234;14.320;2022-10-16T05:44:38;98817.00;;;20.30
11321;BMP180;5715;48.234;14.320;2022-10-16T05:47:25;98811.00;;;20.20
11321;BMP180;5715;48.234;14.320;2022-10-16T05:50:13;98814.00;;;20.20
11321;BMP180;5715;48.234;14.320;2022-10-16T05:53:01;98823.00;;;20.20
11321;BMP180;5715;48.234;14.320;2022-10-16T05:55:52;98819.00;;;20.20
11321;BMP180;5715;48.234;14.320;2022-10-16T05:58:41;98830.00;;;20.20
11321;BMP180;5715;48.234;14.320;2022-10-16T06:01:29;98827.00;;;20.20
11321;BMP180;5715;48.234;14.320;2022-10-16T06:04:18;98831.00;;;20.20
11321;BMP180;5715;48.234;14.320;2022-10-16T06:07:05;98823.00;;;20.30
11321;BMP180;5715;48.234;14.320;2022-10-16T06:09:53;98832.00;;;20.40
11321;BMP180;5715;48.234;14.320;2022-10-16T06:12:41;98836.00;;;20.50
11321;BMP180;5715;48.234;14.320;2022-10-16T06:15:29;98831.00;;;20.60
11321;BMP180;5715;48.234;14.320;2022-10-16T06:18:16;98846.00;;;20.70
11321;BMP180;5715;48.234;14.320;2022-10-16T06:21:22;98849.00;;;20.80
11321;BMP180;5715;48.234;14.320;2022-10-16T06:24:11;98835.00;;;21.10
11321;BMP180;5715;48.234;14.320;2022-10-16T06:26:59;98839.00;;;21.30
11321;BMP180;5715;48.234;14.320;2022-10-16T06:29:46;98847.00;;;21.20
11321;BMP180;5715;48.234;14.320;2022-10-16T06:32:34;98845.00;;;21.20
11321;BMP180;5715;48.234;14.320;2022-10-16T06:35:21;98851.00;;;21.10
11321;BMP180;5715;48.234;14.320;2022-10-16T06:38:09;98858.00;;;21.20
11321;BMP180;5715;48.234;14.320;2022-10-16T06:40:57;98863.00;;;21.00
11321;BMP180;5715;48.234;14.320;2022-10-16T06:43:45;98859.00;;;21.10
11321;BMP180;5715;48.234;14.320;2022-10-16T06:46:33;98857.00;;;21.50
11321;BMP180;5715;48.234;14.320;2022-10-16T06:49:21;98867.00;;;21.60
11321;BMP180;5715;48.234;14.320;2022-10-16T06:52:09;98868.00;;;21.60
11321;BMP180;5715;48.234;14.320;2022-10-16T06:54:57;98878.00;;;21.90
11321;BMP180;5715;48.234;14.320;2022-10-16T06:57:47;98885.00;;;21.90
11321;BMP180;5715;48.234;14.320;2022-10-16T07:00:35;98890.00;;;22.00
11321;BMP180;5715;48.234;14.320;2022-10-16T07:03:23;98891.00;;;21.90
11321;BMP180;5715;48.234;14.320;2022-10-16T07:06:14;98879.00;;;21.90
11321;BMP180;5715;48.234;14.320;2022-10-16T07:09:07;98879.00;;;22.00
11321;BMP180;5715;48.234;14.320;2022-10-16T07:11:56;98884.00;;;22.20
11321;BMP180;5715;48.234;14.320;2022-10-16T07:14:43;98880.00;;;22.30
11321;BMP180;5715;48.234;14.320;2022-10-16T07:17:30;98885.00;;;22.40
11321;BMP180;5715;48.234;14.320;2022-10-16T07:20:19;98883.00;;;22.60
11321;BMP180;5715;48.234;14.320;2022-10-16T07:23:06;98879.00;;;22.70
11321;BMP180;5715;48.234;14.320;2022-10-16T07:25:54;98896.00;;;22.50
11321;BMP180;5715;48.234;14.320;2022-10-16T07:28:43;98898.00;;;22.50
11321;BMP180;5715;48.234;14.320;2022-10-16T07:31:31;98900.00;;;22.70
11321;BMP180;5715;48.234;14.320;2022-10-16T07:34:20;98912.00;;;23.10
11321;BMP180;5715;48.234;14.320;2022-10-16T07:37:08;98907.00;;;23.30
11321;BMP180;5715;48.234;14.320;2022-10-16T07:39:56;98911.00;;;23.60
11321;BMP180;5715;48.234;14.320;2022-10-16T07:42:43;98909.00;;;23.80
11321;BMP180;5715;48.234;14.320;2022-10-16T07:45:31;98917.00;;;24.20
11321;BMP180;5715;48.234;14.320;2022-10-16T07:48:19;98904.00;;;24.40
11321;BMP180;5715;48.234;14.320;2022-10-16T07:51:08;98905.00;;;24.60
11321;BMP180;5715;48.234;14.320;2022-10-16T07:53:56;98920.00;;;24.70
11321;BMP180;5715;48.234;14.320;2022-10-16T07:56:44;98908.00;;;24.80
11321;BMP180;5715;48.234;14.320;2022-10-16T07:59:31;98903.00;;;24.80
11321;BMP180;5715;48.234;14.320;2022-10-16T08:02:18;98901.00;;;25.00
11321;BMP180;5715;48.234;14.320;2022-10-16T08:05:07;98897.00;;;24.80
11321;BMP180;5715;48.234;14.320;2022-10-16T08:07:55;98909.00;;;24.50
11321;BMP180;5715;48.234;14.320;2022-10-16T08:10:44;98913.00;;;24.50
11321;BMP180;5715;48.234;14.320;2022-10-16T08:13:32;98924.00;;;24.80
11321;BMP180;5715;48.234;14.320;2022-10-16T08:16:21;98917.00;;;24.90
11321;BMP180;5715;48.234;14.320;2022-10-16T08:19:08;98913.00;;;24.90
11321;BMP180;5715;48.234;14.320;2022-10-16T08:21:56;98903.00;;;25.20
11321;BMP180;5715;48.234;14.320;2022-10-16T08:24:43;98909.00;;;25.40
11321;BMP180;5715;48.234;14.320;2022-10-16T08:27:32;98917.00;;;25.10
11321;BMP180;5715;48.234;14.320;2022-10-16T08:30:22;98911.00;;;25.20
11321;BMP180;5715;48.234;14.320;2022-10-16T08:33:10;98911.00;;;25.20
11321;BMP180;5715;48.234;14.320;2022-10-16T08:35:58;98911.00;;;25.10
11321;BMP180;5715;48.234;14.320;2022-10-16T08:38:49;98908.00;;;25.00
11321;BMP180;5715;48.234;14.320;2022-10-16T08:42:15;98914.00;;;25.60
11321;BMP180;5715;48.234;14.320;2022-10-16T08:48:50;98912.00;;;25.70
11321;BMP180;5715;48.234;14.320;2022-10-16T08:51:39;98918.00;;;25.50
11321;BMP180;5715;48.234;14.320;2022-10-16T08:54:44;98927.00;;;25.60
11321;BMP180;5715;48.234;14.320;2022-10-16T08:57:33;98937.00;;;25.20
11321;BMP180;5715;48.234;14.320;2022-10-16T09:00:21;98951.00;;;25.30
11321;BMP180;5715;48.234;14.320;2022-10-16T09:06:59;98936.00;;;25.90
11321;BMP180;5715;48.234;14.320;2022-10-16T09:10:27;98925.00;;;25.60
11321;BMP180;5715;48.234;14.320;2022-10-16T09:16:36;98926.00;;;25.70
11321;BMP180;5715;48.234;14.320;2022-10-16T09:20:18;98925.00;;;25.90
11321;BMP180;5715;48.234;14.320;2022-10-16T09:23:27;98938.00;;;26.20
11321;BMP180;5715;48.234;14.320;2022-10-16T09:26:16;98934.00;;;26.30
11321;BMP180;5715;48.234;14.320;2022-10-16T09:29:05;98947.00;;;26.60
11321;BMP180;5715;48.234;14.320;2022-10-16T09:31:57;98955.00;;;26.80
11321;BMP180;5715;48.234;14.320;2022-10-16T09:34:56;98955.00;;;27.10
11321;BMP180;5715;48.234;14.320;2022-10-16T09:37:49;98958.00;;;27.30
11321;BMP180;5715;48.234;14.320;2022-10-16T09:40:41;98952.00;;;27.30
11321;BMP180;5715;48.234;14.320;2022-10-16T09:43:56;98953.00;;;27.70
11321;BMP180;5715;48.234;14.320;2022-10-16T09:46:44;98956.00;;;27.50
11321;BMP180;5715;48.234;14.320;2022-10-16T09:49:32;98951.00;;;27.90
11321;BMP180;5715;48.234;14.320;2022-10-16T09:52:21;98958.00;;;27.80
11321;BMP180;5715;48.234;14.320;2022-10-16T09:55:17;98959.00;;;27.90
11321;BMP180;5715;48.234;14.320;2022-10-16T09:58:13;98963.00;;;28.00
11321;BMP180;5715;48.234;14.320;2022-10-16T10:01:01;98955.00;;;28.20
11321;BMP180;5715;48.234;14.320;2022-10-16T10:03:49;98949.00;;;28.40
11321;BMP180;5715;48.234;14.320;2022-10-16T10:06:58;98953.00;;;28.80
11321;BMP180;5715;48.234;14.320;2022-10-16T10:09:46;98953.00;;;29.00
11321;BMP180;5715;48.234;14.320;2022-10-16T10:12:44;98953.00;;;29.10
11321;BMP180;5715;48.234;14.320;2022-10-16T10:15:41;98943.00;;;29.20
11321;BMP180;5715;48.234;14.320;2022-10-16T10:18:29;98936.00;;;29.40
11321;BMP180;5715;48.234;14.320;2022-10-16T10:21:19;98924.00;;;29.80
11321;BMP180;5715;48.234;14.320;2022-10-16T10:24:14;98933.00;;;29.30
11321;BMP180;5715;48.234;14.320;2022-10-16T10:27:16;98942.00;;;29.70
11321;BMP180;5715;48.234;14.320;2022-10-16T10:36:38;98927.00;;;30.10
11321;BMP180;5715;48.234;14.320;2022-10-16T10:39:57;98929.00;;;29.50
11321;BMP180;5715;48.234;14.320;2022-10-16T10:43:14;98928.00;;;29.60
11321;BMP180;5715;48.234;14.320;2022-10-16T10:46:14;98923.00;;;29.20
11321;BMP180;5715;48.234;14.320;2022-10-16T10:53:28;98922.00;;;29.30
11321;BMP180;5715;48.234;14.320;2022-10-16T10:56:50;98919.00;;;29.50
11321;BMP180;5715;48.234;14.320;2022-10-16T11:12:20;98927.00;;;29.50
11321;BMP180;5715;48.234;14.320;2022-10-16T11:15:18;98917.00;;;29.80
11321;BMP180;5715;48.234;14.320;2022-10-16T11:18:23;98924.00;;;29.90
11321;BMP180;5715;48.234;14.320;2022-10-16T11:21:17;98913.00;;;30.10
11321;BMP180;5715;48.234;14.320;2022-10-16T11:27:36;98914.00;;;30.50
11321;BMP180;5715;48.234;14.320;2022-10-16T11:30:28;98913.00;;;30.80
11321;BMP180;5715;48.234;14.320;2022-10-16T11:33:39;98907.00;;;30.70
11321;BMP180;5715;48.234;14.320;2022-10-16T11:36:42;98905.00;;;30.60
11321;BMP180;5715;48.234;14.320;2022-10-16T11:39:33;98907.00;;;30.70
11321;BMP180;5715;48.234;14.320;2022-10-16T11:42:37;98920.00;;;30.40
11321;BMP180;5715;48.234;14.320;2022-10-16T11:45:49;98917.00;;;30.20
11321;BMP180;5715;48.234;14.320;2022-10-16T11:48:51;98919.00;;;29.50
11321;BMP180;5715;48.234;14.320;2022-10-16T11:52:28;98916.00;;;30.00
11321;BMP180;5715;48.234;14.320;2022-10-16T11:55:21;98912.00;;;29.90
11321;BMP180;5715;48.234;14.320;2022-10-16T12:01:49;98902.00;;;30.00
11321;BMP180;5715;48.234;14.320;2022-10-16T12:04:50;98897.00;;;30.10
11321;BMP180;5715;48.234;14.320;2022-10-16T12:08:13;98903.00;;;30.40
11321;BMP180;5715;48.234;14.320;2022-10-16T12:17:37;98899.00;;;30.60
11321;BMP180;5715;48.234;14.320;2022-10-16T12:20:30;98900.00;;;30.60
11321;BMP180;5715;48.234;14.320;2022-10-16T12:23:21;98901.00;;;30.50
11321;BMP180;5715;48.234;14.320;2022-10-16T12:26:13;98900.00;;;30.60
11321;BMP180;5715;48.234;14.320;2022-10-16T12:29:19;98892.00;;;30.60
11321;BMP180;5715;48.234;14.320;2022-10-16T12:32:41;98894.00;;;30.70
11321;BMP180;5715;48.234;14.320;2022-10-16T12:35:43;98899.00;;;30.50
11321;BMP180;5715;48.234;14.320;2022-10-16T12:38:48;98898.00;;;30.30
11321;BMP180;5715;48.234;14.320;2022-10-16T12:41:36;98898.00;;;30.40
11321;BMP180;5715;48.234;14.320;2022-10-16T12:44:33;98892.00;;;30.40
11321;BMP180;5715;48.234;14.320;2022-10-16T12:47:46;98900.00;;;30.50
11321;BMP180;5715;48.234;14.320;2022-10-16T12:50:38;98901.00;;;30.50
11321;BMP180;5715;48.234;14.320;2022-10-16T12:53:27;98892.00;;;30.60
11321;BMP180;5715;48.234;14.320;2022-10-16T13:02:51;98888.00;;;30.80
11321;BMP180;5715;48.234;14.320;2022-10-16T13:06:17;98890.00;;;30.50
11321;BMP180;5715;48.234;14.320;2022-10-16T13:09:33;98890.00;;;30.40
11321;BMP180;5715;48.234;14.320;2022-10-16T13:28:41;98899.00;;;31.10
11321;BMP180;5715;48.234;14.320;2022-10-16T13:31:31;98905.00;;;31.00
11321;BMP180;5715;48.234;14.320;2022-10-16T13:34:22;98902.00;;;31.00
11321;BMP180;5715;48.234;14.320;2022-10-16T13:37:25;98907.00;;;30.80
11321;BMP180;5715;48.234;14.320;2022-10-16T13:40:23;98902.00;;;30.70
11321;BMP180;5715;48.234;14.320;2022-10-16T13:43:11;98911.00;;;30.80
11321;BMP180;5715;48.234;14.320;2022-10-16T13:46:15;98901.00;;;30.80
11321;BMP180;5715;48.234;14.320;2022-10-16T13:49:13;98904.00;;;31.00
11321;BMP180;5715;48.234;14.320;2022-10-16T13:52:01;98901.00;;;30.80
11321;BMP180;5715;48.234;14.320;2022-10-16T13:54:49;98908.00;;;30.70
11321;BMP180;5715;48.234;14.320;2022-10-16T13:57:36;98912.00;;;30.70
11321;BMP180;5715;48.234;14.320;2022-10-16T14:00:26;98918.00;;;30.80
11321;BMP180;5715;48.234;14.320;2022-10-16T14:03:18;98914.00;;;30.90
11321;BMP180;5715;48.234;14.320;2022-10-16T14:06:17;98922.00;;;30.80
11321;BMP180;5715;48.234;14.320;2022-10-16T14:09:26;98933.00;;;30.80
11321;BMP180;5715;48.234;14.320;2022-10-16T14:12:16;98933.00;;;30.70
11321;BMP180;5715;48.234;14.320;2022-10-16T14:15:04;98936.00;;;30.70
11321;BMP180;5715;48.234;14.320;2022-10-16T14:17:53;98934.00;;;30.40
11321;BMP180;5715;48.234;14.320;2022-10-16T14:20:40;98935.00;;;30.70
11321;BMP180;5715;48.234;14.320;2022-10-16T14:23:37;98937.00;;;30.40
11321;BMP180;5715;48.234;14.320;2022-10-16T14:26:28;98943.00;;;30.60
11321;BMP180;5715;48.234;14.320;2022-10-16T14:29:20;98935.00;;;30.30
11321;BMP180;5715;48.234;14.320;2022-10-16T14:32:26;98938.00;;;30.40
11321;BMP180;5715;48.234;14.320;2022-10-16T14:35:36;98936.00;;;30.40
11321;BMP180;5715;48.234;14.320;2022-10-16T14:38:25;98935.00;;;30.40
11321;BMP180;5715;48.234;14.320;2022-10-16T14:41:13;98936.00;;;30.40
11321;BMP180;5715;48.234;14.320;2022-10-16T14:44:04;98936.00;;;30.30
11321;BMP180;5715;48.234;14.320;2022-10-16T14:46:52;98940.00;;;30.40
11321;BMP180;5715;48.234;14.320;2022-10-16T14:49:42;98936.00;;;30.30
11321;BMP180;5715;48.234;14.320;2022-10-16T14:52:29;98941.00;;;30.40
11321;BMP180;5715;48.234;14.320;2022-10-16T14:55:18;98944.00;;;30.30
11321;BMP180;5715;48.234;14.320;2022-10-16T14:58:07;98931.00;;;30.40
11321;BMP180;5715;48.234;14.320;2022-10-16T15:00:57;98941.00;;;30.30
11321;BMP180;5715;48.234;14.320;2022-10-16T15:03:44;98939.00;;;30.30
11321;BMP180;5715;48.234;14.320;2022-10-16T15:06:32;98941.00;;;30.10
11321;BMP180;5715;48.234;14.320;2022-10-16T15:09:19;98943.00;;;30.30
11321;BMP180;5715;48.234;14.320;2022-10-16T15:12:07;98942.00;;;30.20
11321;BMP180;5715;48.234;14.320;2022-10-16T15:14:55;98948.00;;;30.00
11321;BMP180;5715;48.234;14.320;2022-10-16T15:17:42;98939.00;;;29.80
11321;BMP180;5715;48.234;14.320;2022-10-16T15:20:34;98939.00;;;29.80
11321;BMP180;5715;48.234;14.320;2022-10-16T15:23:22;98945.00;;;29.70
11321;BMP180;5715;48.234;14.320;2022-10-16T15:26:10;98952.00;;;29.70
11321;BMP180;5715;48.234;14.320;2022-10-16T15:28:57;98947.00;;;29.70
11321;BMP180;5715;48.234;14.320;2022-10-16T15:31:45;98959.00;;;29.60
11321;BMP180;5715;48.234;14.320;2022-10-16T15:34:34;98954.00;;;29.50
11321;BMP180;5715;48.234;14.320;2022-10-16T15:37:22;98954.00;;;29.60
11321;BMP180;5715;48.234;14.320;2022-10-16T15:40:10;98952.00;;;29.30
11321;BMP180;5715;48.234;14.320;2022-10-16T15:42:58;98952.00;;;29.20
11321;BMP180;5715;48.234;14.320;2022-10-16T15:46:03;98952.00;;;29.20
11321;BMP180;5715;48.234;14.320;2022-10-16T15:48:58;98946.00;;;29.10
11321;BMP180;5715;48.234;14.320;2022-10-16T15:51:45;98948.00;;;29.00
11321;BMP180;5715;48.234;14.320;2022-10-16T15:54:33;98951.00;;;29.00
11321;BMP180;5715;48.234;14.320;2022-10-16T15:57:21;98943.00;;;29.00
11321;BMP180;5715;48.234;14.320;2022-10-16T16:00:13;98946.00;;;28.90
11321;BMP180;5715;48.234;14.320;2022-10-16T16:03:01;98944.00;;;28.60
11321;BMP180;5715;48.234;14.320;2022-10-16T16:05:49;98955.00;;;28.40
11321;BMP180;5715;48.234;14.320;2022-10-16T16:08:37;98949.00;;;28.20
11321;BMP180;5715;48.234;14.320;2022-10-16T16:11:25;98951.00;;;28.10
11321;BMP180;5715;48.234;14.320;2022-10-16T16:14:14;98961.00;;;28.00
11321;BMP180;5715;48.234;14.320;2022-10-16T16:17:01;98962.00;;;27.90
11321;BMP180;5715;48.234;14.320;2022-10-16T16:19:49;98961.00;;;27.80
11321;BMP180;5715;48.234;14.320;2022-10-16T16:22:36;98967.00;;;27.60
11321;BMP180;5715;48.234;14.320;2022-10-16T16:25:24;98968.00;;;27.50
11321;BMP180;5715;48.234;14.320;2022-10-16T16:28:11;98965.00;;;27.40
11321;BMP180;5715;48.234;14.320;2022-10-16T16:31:02;98970.00;;;27.00
11321;BMP180;5715;48.234;14.320;2022-10-16T16:33:50;98972.00;;;26.60
11321;BMP180;5715;48.234;14.320;2022-10-16T16:36:38;98970.00;;;26.30
11321;BMP180;5715;48.234;14.320;2022-10-16T16:39:27;98975.00;;;25.90
11321;BMP180;5715;48.234;14.320;2022-10-16T16:42:14;98978.00;;;25.80
11321;BMP180;5715;48.234;14.320;2022-10-16T16:45:02;98987.00;;;25.50
11321;BMP180;5715;48.234;14.320;2022-10-16T16:47:50;98991.00;;;25.50
11321;BMP180;5715;48.234;14.320;2022-10-16T16:50:37;98992.00;;;25.20
11321;BMP180;5715;48.234;14.320;2022-10-16T16:53:25;99009.00;;;25.00
11321;BMP180;5715;48.234;14.320;2022-10-16T16:56:13;99004.00;;;24.90
11321;BMP180;5715;48.234;14.320;2022-10-16T16:59:01;99017.00;;;24.90
11321;BMP180;5715;48.234;14.320;2022-10-16T17:01:49;99022.00;;;24.80
11321;BMP180;5715;48.234;14.320;2022-10-16T17:04:43;99024.00;;;24.90
11321;BMP180;5715;48.234;14.320;2022-10-16T17:07:31;99027.00;;;25.00
11321;BMP180;5715;48.234;14.320;2022-10-16T17:10:21;99030.00;;;24.80
11321;BMP180;5715;48.234;14.320;2022-10-16T17:13:09;99030.00;;;24.60
11321;BMP180;5715;48.234;14.320;2022-10-16T17:15:56;99039.00;;;24.30
11321;BMP180;5715;48.234;14.320;2022-10-16T17:18:44;99054.00;;;24.30
11321;BMP180;5715;48.234;14.320;2022-10-16T17:21:31;99061.00;;;24.40
11321;BMP180;5715;48.234;14.320;2022-10-16T17:24:19;99067.00;;;24.20
11321;BMP180;5715;48.234;14.320;2022-10-16T17:27:07;99068.00;;;24.30
11321;BMP180;5715;48.234;14.320;2022-10-16T17:29:56;99079.00;;;24.40
11321;BMP180;5715;48.234;14.320;2022-10-16T17:32:43;99083.00;;;24.50
11321;BMP180;5715;48.234;14.320;2022-10-16T17:35:43;99077.00;;;24.50
11321;BMP180;5715;48.234;14.320;2022-10-16T17:38:31;99085.00;;;24.80
11321;BMP180;5715;48.234;14.320;2022-10-16T17:41:23;99087.00;;;24.80
11321;BMP180;5715;48.234;14.320;2022-10-16T17:44:11;99087.00;;;24.70